createdAt,value
2023-03-11T00:00:48.822Z,97753.19
2023-03-11T00:03:18.509Z,97741.59
2023-03-11T00:05:47.743Z,97742.28
2023-03-11T00:08:19.924Z,97748.00
2023-03-11T00:10:52.692Z,97747.22
2023-03-11T00:13:20.222Z,97734.47
2023-03-11T00:15:51.503Z,97729.56
2023-03-11T00:18:19.456Z,97737.16
2023-03-11T00:20:47.877Z,97731.91
2023-03-11T00:23:16.459Z,97737.13
2023-03-11T00:25:45.980Z,97729.38
2023-03-11T00:28:17.265Z,97723.91
2023-03-11T00:30:47.355Z,97719.69
2023-03-11T00:33:16.647Z,97713.28
2023-03-11T00:35:44.946Z,97714.00
2023-03-11T00:38:15.973Z,97708.66
2023-03-11T00:40:46.109Z,97710.97
2023-03-11T00:43:14.766Z,97703.84
2023-03-11T00:45:42.538Z,97696.75
2023-03-11T00:48:11.615Z,97683.59
2023-03-11T00:50:39.269Z,97682.94
2023-03-11T00:53:07.084Z,97673.97
2023-03-11T00:55:35.972Z,97673.16
2023-03-11T00:58:08.449Z,97670.94
2023-03-11T01:00:56.364Z,97667.56
2023-03-11T01:03:23.829Z,97662.63
2023-03-11T01:05:51.380Z,97645.69
2023-03-11T01:08:18.960Z,97645.38
2023-03-11T01:10:46.400Z,97644.22
2023-03-11T01:13:13.902Z,97627.28
2023-03-11T01:15:41.461Z,97629.53
2023-03-11T01:18:08.925Z,97632.81
2023-03-11T01:20:38.481Z,97632.50
2023-03-11T01:23:07.073Z,97642.63
2023-03-11T01:25:35.532Z,97637.28
2023-03-11T01:28:03.116Z,97633.91
2023-03-11T01:30:31.511Z,97628.66
2023-03-11T01:32:59.569Z,97624.91
2023-03-11T01:35:29.541Z,97631.28
2023-03-11T01:37:57.879Z,97632.44
2023-03-11T01:40:36.658Z,97618.53
2023-03-11T01:43:37.399Z,97609.53
2023-03-11T01:46:11.281Z,97617.88
2023-03-11T01:48:39.369Z,97622.72
2023-03-11T01:51:08.016Z,97613.38
2023-03-11T01:53:36.462Z,97613.75
2023-03-11T01:56:06.168Z,97615.25
2023-03-11T01:58:39.683Z,97605.38
2023-03-11T02:01:08.119Z,97594.53
2023-03-11T02:03:40.566Z,97597.19
2023-03-11T02:06:14.679Z,97590.09
2023-03-11T02:08:44.636Z,97580.25
2023-03-11T02:11:28.384Z,97582.50
2023-03-11T02:14:01.607Z,97594.44
2023-03-11T02:16:29.561Z,97576.34
2023-03-11T02:19:04.850Z,97569.63
2023-03-11T02:21:35.142Z,97576.72
2023-03-11T02:24:14.550Z,97574.41
2023-03-11T02:27:06.123Z,97577.16
2023-03-11T02:29:35.654Z,97595.25
2023-03-11T02:32:09.377Z,97588.00
2023-03-11T02:34:42.184Z,97579.75
2023-03-11T02:37:13.626Z,97595.59
2023-03-11T02:39:48.655Z,97588.78
2023-03-11T02:42:25.991Z,97590.38
2023-03-11T02:45:04.868Z,97577.63
2023-03-11T02:47:33.659Z,97595.56
2023-03-11T02:50:01.296Z,97598.19
2023-03-11T02:52:30.938Z,97593.59
2023-03-11T02:54:58.491Z,97601.06
2023-03-11T02:57:26.037Z,97608.56
2023-03-11T02:59:54.045Z,97609.81
2023-03-11T03:02:21.972Z,97616.13
2023-03-11T03:04:50.037Z,97628.19
2023-03-11T03:07:17.722Z,97645.44
2023-03-11T03:09:45.322Z,97648.13
2023-03-11T03:12:13.148Z,97643.94
2023-03-11T03:14:40.623Z,97643.81
2023-03-11T03:17:08.366Z,97629.09
2023-03-11T03:19:36.113Z,97609.63
2023-03-11T03:22:03.898Z,97606.00
2023-03-11T03:24:31.475Z,97589.75
2023-03-11T03:26:59.018Z,97582.81
2023-03-11T03:29:26.689Z,97584.28
2023-03-11T03:31:55.075Z,97588.03
2023-03-11T03:34:22.901Z,97585.03
2023-03-11T03:36:50.508Z,97576.38
2023-03-11T03:39:20.042Z,97569.97
2023-03-11T03:41:49.435Z,97563.91
2023-03-11T03:44:17.258Z,97561.56
2023-03-11T03:46:44.929Z,97559.19
2023-03-11T03:49:13.253Z,97564.97
2023-03-11T03:51:41.527Z,97553.09
2023-03-11T03:54:29.197Z,97558.47
2023-03-11T03:56:57.420Z,97553.25
2023-03-11T03:59:25.603Z,97547.41
2023-03-11T04:01:59.811Z,97550.06
2023-03-11T04:04:31.517Z,97562.34
2023-03-11T04:06:59.395Z,97558.06
2023-03-11T04:09:27.413Z,97577.81
2023-03-11T04:11:55.437Z,97579.03
2023-03-11T04:14:23.152Z,97585.88
2023-03-11T04:16:55.799Z,97606.72
2023-03-11T04:19:23.482Z,97622.41
2023-03-11T04:21:52.031Z,97626.06
2023-03-11T04:24:21.354Z,97622.44
2023-03-11T04:26:52.127Z,97626.19
2023-03-11T04:29:20.427Z,97635.22
2023-03-11T04:31:51.197Z,97629.44
2023-03-11T04:34:19.460Z,97636.69
2023-03-11T04:36:47.057Z,97642.50
2023-03-11T04:39:17.100Z,97646.28
2023-03-11T04:41:46.808Z,97647.06
2023-03-11T04:44:18.642Z,97644.00
2023-03-11T04:46:46.888Z,97635.47
2023-03-11T04:49:14.407Z,97660.75
2023-03-11T04:51:43.232Z,97674.50
2023-03-11T04:54:11.945Z,97680.31
2023-03-11T04:56:39.751Z,97681.47
2023-03-11T04:59:08.084Z,97688.00
2023-03-11T05:01:38.156Z,97686.91
2023-03-11T05:04:08.358Z,97693.81
2023-03-11T05:06:36.385Z,97693.00
2023-03-11T05:09:05.222Z,97683.25
2023-03-11T05:11:36.603Z,97678.06
2023-03-11T05:14:04.612Z,97677.59
2023-03-11T05:16:32.260Z,97683.31
2023-03-11T05:18:59.839Z,97665.66
2023-03-11T05:21:27.363Z,97666.91
2023-03-11T05:24:14.859Z,97675.69
2023-03-11T05:26:42.432Z,97670.97
2023-03-11T05:29:12.946Z,97670.09
2023-03-11T05:31:40.730Z,97674.31
2023-03-11T05:34:10.226Z,97673.59
2023-03-11T05:36:37.792Z,97680.19
2023-03-11T05:39:05.937Z,97680.66
2023-03-11T05:41:35.435Z,97685.63
2023-03-11T05:44:04.561Z,97679.69
2023-03-11T05:46:32.938Z,97685.13
2023-03-11T05:49:01.814Z,97684.34
2023-03-11T05:51:29.732Z,97681.34
2023-03-11T05:53:58.729Z,97684.94
2023-03-11T05:56:34.907Z,97691.75
2023-03-11T05:59:03.822Z,97689.59
2023-03-11T06:01:35.417Z,97683.50
2023-03-11T06:04:04.618Z,97672.38
2023-03-11T06:06:32.708Z,97664.50
2023-03-11T06:09:01.957Z,97659.25
2023-03-11T06:11:30.269Z,97658.41
2023-03-11T06:13:59.136Z,97660.09
2023-03-11T06:16:29.136Z,97655.22
2023-03-11T06:19:00.952Z,97652.44
2023-03-11T06:21:32.204Z,97655.94
2023-03-11T06:23:59.999Z,97656.91
2023-03-11T06:26:29.134Z,97651.06
2023-03-11T06:28:56.697Z,97653.53
2023-03-11T06:31:27.507Z,97642.16
2023-03-11T06:34:02.627Z,97633.47
2023-03-11T06:36:30.325Z,97637.25
2023-03-11T06:39:01.209Z,97643.47
2023-03-11T06:41:29.749Z,97643.66
2023-03-11T06:43:59.848Z,97636.59
2023-03-11T06:46:29.053Z,97642.25
2023-03-11T06:48:58.274Z,97644.16
2023-03-11T06:51:26.022Z,97651.47
2023-03-11T06:53:54.738Z,97653.34
2023-03-11T06:56:24.645Z,97660.13
2023-03-11T06:59:00.658Z,97664.66
2023-03-11T07:01:31.848Z,97658.22
2023-03-11T07:04:01.585Z,97652.59
2023-03-11T07:06:30.146Z,97642.72
2023-03-11T07:09:12.876Z,97642.28
2023-03-11T07:11:44.174Z,97640.16
2023-03-11T07:14:18.768Z,97641.31
2023-03-11T07:16:49.916Z,97623.94
2023-03-11T07:19:34.877Z,97623.59
2023-03-11T07:22:02.415Z,97620.63
2023-03-11T07:24:30.073Z,97615.72
2023-03-11T07:26:57.527Z,97615.00
2023-03-11T07:29:24.987Z,97613.47
2023-03-11T07:31:52.878Z,97609.75
2023-03-11T07:34:20.583Z,97619.91
2023-03-11T07:36:48.156Z,97617.22
2023-03-11T07:39:18.979Z,97614.22
2023-03-11T07:41:47.590Z,97609.72
2023-03-11T07:44:17.043Z,97602.94
2023-03-11T07:46:45.652Z,97608.59
2023-03-11T07:49:15.207Z,97609.72
2023-03-11T07:51:44.131Z,97604.00
2023-03-11T07:54:15.210Z,97604.34
2023-03-11T07:56:43.004Z,97598.28
2023-03-11T07:59:10.948Z,97611.09
2023-03-11T08:01:41.215Z,97599.75
2023-03-11T08:04:14.403Z,97613.38
2023-03-11T08:06:45.657Z,97610.97
2023-03-11T08:09:14.284Z,97610.75
2023-03-11T08:11:43.130Z,97628.06
2023-03-11T08:14:10.901Z,97618.09
2023-03-11T08:16:41.280Z,97617.34
2023-03-11T08:19:12.943Z,97605.38
2023-03-11T08:21:40.833Z,97605.09
2023-03-11T08:24:13.508Z,97601.69
2023-03-11T08:26:42.538Z,97603.50
2023-03-11T08:29:10.428Z,97593.81
2023-03-11T08:31:38.046Z,97583.66
2023-03-11T08:34:12.541Z,97594.09
2023-03-11T08:36:40.506Z,97585.34
2023-03-11T08:39:08.258Z,97602.91
2023-03-11T08:41:36.677Z,97586.44
2023-03-11T08:44:06.205Z,97592.16
2023-03-11T08:46:38.277Z,97590.44
2023-03-11T08:49:07.220Z,97583.97
2023-03-11T08:51:36.552Z,97592.06
2023-03-11T08:54:06.437Z,97579.59
2023-03-11T08:56:33.939Z,97594.00
2023-03-11T08:59:01.499Z,97592.00
2023-03-11T09:01:30.715Z,97585.94
2023-03-11T09:03:58.486Z,97583.56
2023-03-11T09:06:26.326Z,97586.84
2023-03-11T09:08:53.895Z,97583.13
2023-03-11T09:11:23.840Z,97575.47
2023-03-11T09:13:51.508Z,97575.06
2023-03-11T09:16:23.805Z,97569.31
2023-03-11T09:18:51.459Z,97561.75
2023-03-11T09:21:20.426Z,97553.47
2023-03-11T09:23:48.637Z,97553.41
2023-03-11T09:26:16.677Z,97557.78
2023-03-11T09:28:48.920Z,97536.28
2023-03-11T09:31:17.739Z,97542.78
2023-03-11T09:33:47.132Z,97526.75
2023-03-11T09:36:19.612Z,97536.00
2023-03-11T09:38:49.965Z,97538.66
2023-03-11T09:41:38.303Z,97526.91
2023-03-11T09:44:19.715Z,97526.41
2023-03-11T09:47:19.692Z,97527.53
2023-03-11T09:50:13.073Z,97534.06
2023-03-11T09:52:46.755Z,97524.44
2023-03-11T09:55:38.183Z,97529.91
2023-03-11T09:58:32.542Z,97531.34
2023-03-11T10:01:00.732Z,97525.22
2023-03-11T10:03:37.392Z,97523.09
2023-03-11T10:06:24.591Z,97522.31
2023-03-11T10:09:13.049Z,97512.66
2023-03-11T10:12:39.176Z,97506.34
2023-03-11T10:15:30.884Z,97519.00
2023-03-11T10:18:20.720Z,97516.03
2023-03-11T10:21:29.927Z,97521.06
2023-03-11T10:24:33.061Z,97520.53
2023-03-11T10:27:08.618Z,97528.50
2023-03-11T10:30:17.807Z,97522.16
2023-03-11T10:33:01.456Z,97522.47
2023-03-11T10:35:42.479Z,97514.06
2023-03-11T10:38:31.690Z,97519.59
2023-03-11T10:41:05.500Z,97525.97
2023-03-11T10:43:39.256Z,97496.38
2023-03-11T10:46:25.703Z,97505.16
2023-03-11T10:48:53.272Z,97509.63
2023-03-11T10:51:35.887Z,97500.91
2023-03-11T10:54:05.424Z,97496.50
2023-03-11T10:56:41.441Z,97495.44
2023-03-11T10:59:48.422Z,97506.50
2023-03-11T11:02:27.948Z,97503.50
2023-03-11T11:05:20.296Z,97504.84
2023-03-11T11:07:50.895Z,97509.31
2023-03-11T11:10:21.883Z,97507.84
2023-03-11T11:12:52.349Z,97509.84
2023-03-11T11:15:26.696Z,97504.38
2023-03-11T11:18:07.617Z,97503.19
2023-03-11T11:20:36.135Z,97508.81
2023-03-11T11:23:04.917Z,97496.28
2023-03-11T11:25:37.283Z,97505.66
2023-03-11T11:28:19.495Z,97492.06
2023-03-11T11:31:06.868Z,97489.81
2023-03-11T11:33:51.971Z,97488.00
2023-03-11T11:36:27.894Z,97491.16
2023-03-11T11:38:57.081Z,97482.03
2023-03-11T11:41:27.308Z,97492.06
2023-03-11T11:43:57.319Z,97484.69
2023-03-11T11:47:06.463Z,97483.97
2023-03-11T11:49:35.951Z,97483.13
2023-03-11T11:52:17.990Z,97477.09
2023-03-11T11:55:09.954Z,97480.97
2023-03-11T11:57:38.203Z,97469.75
2023-03-11T12:00:35.748Z,97460.72
2023-03-11T12:04:03.052Z,97458.41
2023-03-11T12:06:48.232Z,97460.91
2023-03-11T12:09:28.854Z,97456.22
2023-03-11T12:12:29.951Z,97450.34
2023-03-11T12:15:24.436Z,97441.94
2023-03-11T12:17:59.383Z,97440.22
2023-03-11T12:20:59.408Z,97443.50
2023-03-11T12:23:45.946Z,97431.88
2023-03-11T12:26:23.137Z,97433.16
2023-03-11T12:29:08.414Z,97434.28
2023-03-11T12:31:40.379Z,97441.75
2023-03-11T12:34:13.366Z,97422.69
2023-03-11T12:36:45.039Z,97434.66
2023-03-11T12:39:30.081Z,97428.88
2023-03-11T12:42:21.819Z,97424.28
2023-03-11T12:44:53.496Z,97434.00
2023-03-11T12:47:24.334Z,97427.19
2023-03-11T12:50:35.748Z,97422.88
2023-03-11T12:53:03.915Z,97418.00
2023-03-11T12:55:35.520Z,97414.97
2023-03-11T12:58:28.093Z,97424.44
2023-03-11T13:01:36.647Z,97425.34
2023-03-11T13:04:22.760Z,97432.09
2023-03-11T13:07:25.835Z,97421.03
2023-03-11T13:10:08.331Z,97432.19
2023-03-11T13:12:49.277Z,97435.94
2023-03-11T13:15:19.993Z,97458.97
2023-03-11T13:18:14.675Z,97453.53
2023-03-11T13:20:42.130Z,97458.03
2023-03-11T13:23:23.523Z,97469.53
2023-03-11T13:25:53.870Z,97472.88
2023-03-11T13:28:59.003Z,97473.72
2023-03-11T13:31:53.386Z,97475.16
2023-03-11T13:34:26.356Z,97475.81
2023-03-11T13:37:29.842Z,97489.28
2023-03-11T13:40:37.484Z,97489.06
2023-03-11T13:43:12.140Z,97479.72
2023-03-11T13:45:42.152Z,97482.13
2023-03-11T13:48:29.278Z,97489.28
2023-03-11T13:51:06.705Z,97485.03
2023-03-11T13:53:58.883Z,97496.72
2023-03-11T13:56:35.296Z,97489.28
2023-03-11T13:59:27.493Z,97486.63
2023-03-11T14:02:01.761Z,97486.03
2023-03-11T14:04:37.751Z,97486.41
2023-03-11T14:07:28.605Z,97485.41
2023-03-11T14:10:32.382Z,97483.63
2023-03-11T14:13:31.802Z,97483.91
2023-03-11T14:16:36.379Z,97484.63
2023-03-11T14:19:18.732Z,97485.53
2023-03-11T14:22:09.419Z,97480.47
2023-03-11T14:24:39.823Z,97485.78
2023-03-11T14:27:11.209Z,97488.84
2023-03-11T14:29:43.629Z,97489.03
2023-03-11T14:32:34.245Z,97490.84
2023-03-11T14:35:17.576Z,97489.19
2023-03-11T14:37:45.299Z,97483.31
2023-03-11T14:40:38.103Z,97495.50
2023-03-11T14:43:13.052Z,97499.22
2023-03-11T14:45:44.036Z,97493.97
2023-03-11T14:48:39.551Z,97495.13
2023-03-11T14:51:22.118Z,97512.56
2023-03-11T14:54:03.253Z,97499.13
2023-03-11T14:56:38.720Z,97504.09
2023-03-11T14:59:15.778Z,97514.03
2023-03-11T15:01:45.503Z,97512.69
2023-03-11T15:04:26.236Z,97516.81
2023-03-11T15:06:56.620Z,97511.81
2023-03-11T15:09:29.533Z,97519.50
2023-03-11T15:12:06.864Z,97524.22
2023-03-11T15:14:37.613Z,97525.84
2023-03-11T15:17:38.552Z,97531.50
2023-03-11T15:20:32.523Z,97530.88
2023-03-11T15:23:05.468Z,97530.81
2023-03-11T15:25:38.168Z,97538.41
2023-03-11T15:28:35.834Z,97546.41
2023-03-11T15:31:40.004Z,97559.94
2023-03-11T15:34:17.239Z,97553.94
2023-03-11T15:36:50.507Z,97564.03
2023-03-11T15:39:51.079Z,97568.72
2023-03-11T15:42:27.487Z,97574.31
2023-03-11T15:45:19.643Z,97573.78
2023-03-11T15:47:50.820Z,97589.03
2023-03-11T15:50:30.756Z,97588.69
2023-03-11T15:53:05.082Z,97606.22
2023-03-11T15:55:33.985Z,97608.28
2023-03-11T15:58:08.675Z,97612.50
2023-03-11T16:00:38.124Z,97620.44
2023-03-11T16:03:06.205Z,97625.16
2023-03-11T16:05:33.745Z,97628.03
2023-03-11T16:08:01.341Z,97633.59
2023-03-11T16:10:28.962Z,97646.69
2023-03-11T16:12:59.927Z,97635.25
2023-03-11T16:15:33.160Z,97642.69
2023-03-11T16:18:03.943Z,97650.66
2023-03-11T16:20:52.050Z,97661.19
2023-03-11T16:23:48.570Z,97670.34
2023-03-11T16:26:19.387Z,97694.47
2023-03-11T16:28:47.294Z,97709.66
2023-03-11T16:31:14.874Z,97713.97
2023-03-11T16:33:44.848Z,97714.38
2023-03-11T16:36:12.432Z,97732.56
2023-03-11T16:38:48.179Z,97725.78
2023-03-11T16:41:18.880Z,97741.66
2023-03-11T16:43:46.671Z,97744.31
2023-03-11T16:46:14.155Z,97745.44
2023-03-11T16:48:42.474Z,97751.47
2023-03-11T16:51:10.079Z,97760.50
2023-03-11T16:53:37.703Z,97771.44
2023-03-11T16:56:07.487Z,97779.75
2023-03-11T16:58:34.977Z,97788.41
2023-03-11T17:01:05.097Z,97788.78
2023-03-11T17:03:42.619Z,97796.31
2023-03-11T17:06:12.598Z,97806.09
2023-03-11T17:08:42.884Z,97811.81
2023-03-11T17:11:23.056Z,97814.03
2023-03-11T17:13:55.366Z,97814.78
2023-03-11T17:16:24.531Z,97817.78
2023-03-11T17:18:53.240Z,97834.75
2023-03-11T17:21:21.510Z,97829.09
2023-03-11T17:23:50.078Z,97840.41
2023-03-11T17:26:18.635Z,97846.41
2023-03-11T17:28:47.115Z,97850.53
2023-03-11T17:31:17.449Z,97853.06
2023-03-11T17:33:47.358Z,97862.47
2023-03-11T17:36:18.444Z,97859.78
2023-03-11T17:38:47.500Z,97874.47
2023-03-11T17:41:18.383Z,97871.91
2023-03-11T17:43:51.357Z,97869.53
2023-03-11T17:46:23.164Z,97876.97
2023-03-11T17:48:53.093Z,97881.00
2023-03-11T17:51:24.456Z,97880.66
2023-03-11T17:53:57.223Z,97895.84
2023-03-11T17:56:26.631Z,97909.50
2023-03-11T17:58:54.499Z,97918.97
2023-03-11T18:01:25.604Z,97926.16
2023-03-11T18:03:59.481Z,97922.41
2023-03-11T18:06:30.569Z,97927.50
2023-03-11T18:08:59.569Z,97944.16
2023-03-11T18:11:28.904Z,97952.91
2023-03-11T18:13:59.361Z,97958.44
2023-03-11T18:16:32.856Z,97961.25
2023-03-11T18:19:01.115Z,97969.59
2023-03-11T18:21:31.010Z,97962.25
2023-03-11T18:24:01.074Z,97967.78
2023-03-11T18:26:31.275Z,97972.09
2023-03-11T18:29:02.679Z,97979.84
2023-03-11T18:31:33.713Z,97988.59
2023-03-11T18:34:23.237Z,97991.84
2023-03-11T18:36:50.726Z,98002.56
2023-03-11T18:39:18.276Z,98015.75
2023-03-11T18:41:45.991Z,98027.69
2023-03-11T18:44:13.664Z,98031.19
2023-03-11T18:46:42.509Z,98035.00
2023-03-11T18:49:13.446Z,98045.25
2023-03-11T18:51:41.210Z,98052.59
2023-03-11T18:54:10.583Z,98056.84
2023-03-11T18:56:38.148Z,98050.16
2023-03-11T18:59:08.807Z,98061.31
2023-03-11T19:01:36.438Z,98072.13
2023-03-11T19:04:04.228Z,98071.47
2023-03-11T19:06:37.359Z,98072.63
2023-03-11T19:09:06.756Z,98082.84
2023-03-11T19:11:34.340Z,98079.34
2023-03-11T19:14:02.179Z,98098.13
2023-03-11T19:16:35.016Z,98103.19
2023-03-11T19:19:05.145Z,98122.59
2023-03-11T19:21:34.579Z,98127.22
2023-03-11T19:24:07.760Z,98131.56
2023-03-11T19:26:45.114Z,98134.78
2023-03-11T19:29:14.919Z,98129.69
2023-03-11T19:31:48.135Z,98146.63
2023-03-11T19:34:15.890Z,98150.28
2023-03-11T19:36:48.009Z,98154.00
2023-03-11T19:39:16.264Z,98158.50
2023-03-11T19:41:45.156Z,98152.88
2023-03-11T19:44:18.359Z,98152.38
2023-03-11T19:46:46.984Z,98161.63
2023-03-11T19:49:14.684Z,98159.13
2023-03-11T19:51:50.104Z,98170.47
2023-03-11T19:54:19.408Z,98178.72
2023-03-11T19:56:48.140Z,98166.31
2023-03-11T19:59:17.537Z,98171.59
2023-03-11T20:01:48.183Z,98183.78
2023-03-11T20:04:16.498Z,98183.56
2023-03-11T20:06:47.899Z,98195.22
2023-03-11T20:09:17.646Z,98197.31
2023-03-11T20:11:47.167Z,98200.34
2023-03-11T20:14:15.634Z,98208.06
2023-03-11T20:16:44.604Z,98201.16
2023-03-11T20:19:13.093Z,98207.16
2023-03-11T20:21:46.067Z,98202.75
2023-03-11T20:24:15.576Z,98210.38
2023-03-11T20:26:44.467Z,98224.06
2023-03-11T20:29:13.152Z,98213.72
2023-03-11T20:31:41.255Z,98225.34
2023-03-11T20:34:14.270Z,98229.16
2023-03-11T20:36:47.040Z,98224.25
2023-03-11T20:39:14.697Z,98244.22
2023-03-11T20:41:43.228Z,98247.25
2023-03-11T20:44:14.984Z,98257.09
2023-03-11T20:46:47.665Z,98260.59
2023-03-11T20:49:19.854Z,98265.16
2023-03-11T20:51:48.271Z,98252.19
2023-03-11T20:54:19.357Z,98267.56
2023-03-11T20:56:50.724Z,98257.38
2023-03-11T20:59:32.140Z,98265.97
2023-03-11T21:02:13.093Z,98259.78
2023-03-11T21:04:43.280Z,98265.31
2023-03-11T21:07:11.799Z,98279.84
2023-03-11T21:09:40.694Z,98269.91
2023-03-11T21:12:10.988Z,98278.44
2023-03-11T21:14:46.899Z,98275.50
2023-03-11T21:17:17.425Z,98275.72
2023-03-11T21:19:45.296Z,98284.66
2023-03-11T21:22:13.838Z,98290.78
2023-03-11T21:24:42.552Z,98291.81
2023-03-11T21:27:10.277Z,98293.88
2023-03-11T21:29:37.927Z,98306.16
2023-03-11T21:32:09.040Z,98306.59
2023-03-11T21:34:36.779Z,98297.81
2023-03-11T21:37:05.660Z,98310.25
2023-03-11T21:39:33.229Z,98303.28
2023-03-11T21:42:00.678Z,98310.41
2023-03-11T21:44:29.034Z,98318.91
2023-03-11T21:46:56.637Z,98322.34
2023-03-11T21:49:24.577Z,98330.00
2023-03-11T21:51:55.007Z,98320.00
2023-03-11T21:54:46.374Z,98333.25
2023-03-11T21:57:15.665Z,98337.81
2023-03-11T21:59:44.929Z,98328.84
2023-03-11T22:02:16.495Z,98334.75
2023-03-11T22:04:45.048Z,98332.09
2023-03-11T22:07:12.870Z,98327.63
2023-03-11T22:09:40.446Z,98331.53
2023-03-11T22:12:09.182Z,98323.00
2023-03-11T22:14:36.897Z,98324.13
2023-03-11T22:17:04.687Z,98324.09
2023-03-11T22:19:34.877Z,98331.19
2023-03-11T22:22:02.609Z,98338.47
2023-03-11T22:24:31.524Z,98344.38
2023-03-11T22:27:00.385Z,98343.94
2023-03-11T22:29:28.415Z,98347.88
2023-03-11T22:31:58.902Z,98348.66
2023-03-11T22:34:26.400Z,98338.50
2023-03-11T22:36:53.852Z,98351.94
2023-03-11T22:39:21.373Z,98353.75
2023-03-11T22:41:49.065Z,98359.72
2023-03-11T22:44:16.607Z,98353.53
2023-03-11T22:46:44.069Z,98354.28
2023-03-11T22:49:11.580Z,98366.06
2023-03-11T22:51:39.163Z,98367.19
2023-03-11T22:54:06.892Z,98370.72
2023-03-11T22:56:34.613Z,98371.03
2023-03-11T22:59:02.891Z,98372.88
2023-03-11T23:01:30.411Z,98368.56
2023-03-11T23:03:58.116Z,98378.41
2023-03-11T23:06:27.498Z,98378.97
2023-03-11T23:08:54.994Z,98378.72
2023-03-11T23:11:23.424Z,98382.53
2023-03-11T23:13:54.811Z,98384.38
2023-03-11T23:16:26.362Z,98379.50
2023-03-11T23:18:55.985Z,98379.00
2023-03-11T23:21:32.563Z,98396.34
2023-03-11T23:24:02.334Z,98404.09
2023-03-11T23:26:30.924Z,98400.94
2023-03-11T23:28:58.642Z,98416.13
2023-03-11T23:31:27.752Z,98416.94
2023-03-11T23:33:55.758Z,98418.94
2023-03-11T23:36:32.613Z,98424.13
2023-03-11T23:39:01.183Z,98419.53
2023-03-11T23:41:29.252Z,98424.91
2023-03-11T23:43:56.762Z,98427.50
2023-03-11T23:46:24.326Z,98445.59
2023-03-11T23:48:51.934Z,98442.25
2023-03-11T23:51:19.701Z,98441.34
2023-03-11T23:53:47.633Z,98442.22
2023-03-11T23:56:18.715Z,98443.78
2023-03-11T23:58:47.071Z,98450.81
